CST,Max TemperatureF,Mean TemperatureF,Min TemperatureF,Max Dew PointF,MeanDew PointF,Min DewpointF,Max Humidity, Mean Humidity, Min Humidity, Max Sea Level PressureIn, Mean Sea Level PressureIn, Min Sea Level PressureIn, Max VisibilityMiles, Mean VisibilityMiles, Min VisibilityMiles, Max Wind SpeedMPH, Mean Wind SpeedMPH, Max Gust SpeedMPH,PrecipitationIn, CloudCover, Events, WindDirDegrees
2012-1-1,47,40,32,40,30,21,88,71,59,30.15,29.87,29.52,10,10,7,37,21,47,0.04,6,Rain,274
2012-1-2,29,24,19,20,14,7,76,62,44,30.42,30.26,30.14,10,10,4,29,21,38,0.00,7,Snow,320
2012-1-3,32,23,14,19,13,9,82,65,43,30.45,30.32,30.08,10,10,10,17,7,22,0.00,0,,234
2012-1-4,43,36,29,30,23,18,73,59,51,30.09,30.00,29.93,10,10,10,20,10,22,0.00,0,,261
2012-1-5,57,42,28,34,29,24,87,66,41,30.05,29.91,29.77,10,10,10,15,7,17,0.00,0,,216
2012-1-6,57,49,41,39,35,32,73,60,44,29.79,29.73,29.67,10,10,10,14,10,,0.00,0,,252
2012-1-7,44,38,32,32,31,28,85,74,61,30.17,30.02,29.86,10,10,10,15,10,17,0.00,1,,292
2012-1-8,43,34,26,34,29,23,93,80,66,30.36,30.30,30.25,10,10,10,7,3,,0.00,1,,100
2012-1-9,50,38,26,33,29,25,95,74,44,30.27,30.12,30.00,10,7,0,22,7,29,0.00,0,Fog,237
2012-1-10,55,43,31,32,30,28,90,64,39,30.07,29.98,29.86,10,10,10,14,7,21,0.00,0,,228
2012-1-11,55,42,28,36,31,26,88,69,43,29.76,29.62,29.53,10,10,7,8,4,,0.00,0,,29
2012-1-12,36,28,20,34,22,16,90,85,80,29.57,29.53,29.49,10,5,0,22,15,29,0.00,8,Snow,287
2012-1-13,23,19,15,16,14,12,86,79,71,30.05,29.87,29.67,10,8,2,18,15,26,0.00,7,Snow,283
2012-1-14,22,16,9,14,11,5,89,81,67,30.20,30.10,30.05,10,9,4,7,3,,0.00,2,Snow,309
2012-1-15,36,28,19,29,22,14,87,80,72,30.31,30.24,30.05,10,9,7,26,10,33,0.00,2,,160
2012-1-16,46,39,32,42,34,28,90,80,70,29.97,29.80,29.68,10,10,7,20,15,26,0.00,4,,184
2012-1-17,41,32,23,40,32,19,100,89,79,30.16,29.79,29.57,10,4,1,29,13,34,0.10,8,Rain-Snow,333
2012-1-18,30,20,11,21,13,7,83,75,66,30.31,30.20,29.94,10,10,10,20,8,23,0.00,1,,220
2012-1-19,32,20,7,27,9,-2,93,66,53,30.19,30.01,29.80,10,8,1,21,13,26,0.00,4,Snow,310
2012-1-20,19,13,7,16,6,-4,87,71,52,30.23,30.13,30.00,10,6,0,23,9,26,0.02,6,Snow,77
2012-1-21,25,21,17,17,13,10,86,77,70,30.25,30.18,30.10,10,10,7,16,10,20,0.00,6,,39
2012-1-22,37,28,18,36,28,13,95,92,81,30.06,29.84,29.62,10,4,1,24,16,31,0.00,8,Snow,149
2012-1-23,46,40,33,45,35,27,96,88,74,29.86,29.54,29.34,10,6,0,32,17,40,0.02,8,Fog-Rain-Snow-Thunderstorm,241
2012-1-24,37,34,30,29,26,24,84,76,67,30.31,30.17,29.98,10,10,7,17,12,22,0.00,5,,282
2012-1-25,36,31,26,32,28,24,93,87,76,30.35,30.26,30.10,10,6,3,12,4,9,0.00,2,,108
2012-1-26,39,36,33,36,34,32,100,92,85,30.03,29.84,29.69,5,3,0,8,4,,0.00,8,Fog,12
2012-1-27,43,36,30,32,30,24,93,78,47,30.00,29.88,29.68,10,9,4,15,9,18,0.00,3,,277
2012-1-28,36,32,27,34,25,19,95,74,51,30.13,30.03,29.87,10,9,2,29,17,34,0.02,2,Snow,267
2012-1-29,35,32,27,28,24,19,81,71,60,30.24,30.09,29.96,10,10,3,23,14,33,0.00,4,Snow,272
2012-1-30,59,44,28,40,31,22,81,66,43,30.20,29.95,29.81,10,10,7,25,12,30,0.00,4,,180
2012-1-31,60,52,45,50,43,37,77,69,62,29.87,29.83,29.78,10,10,10,24,14,31,0.00,4,,217